D91 weather

Spencerport Airpark
Spencerport, New York, United States

Public forecast

Using degrees Fahrenheit for public forecast. Weather courtesy of forecast.io.

Closest aviation weather report (METAR) to Spencerport Airpark

Closest report is Greater Rochester International Airport, 7.1 nm (13.1 km) ESE. Retrieved 2020/06/05 21:54 UTC (39 minutes ago):

KROC 052154Z 04007KT 10SM BKN060 BKN180 28/18 A2979 RMK AO2 SLP085 T02780178

Closest aviation forecast (TAF) to Spencerport Airpark

Closest forecast is Greater Rochester International Airport, 7.1 nm (13.1 km) ESE. Retrieved 2020/06/05 18:22 UTC (4 hours ago):

TAF KROC 051720Z 0518/0618 23007KT P6SM SCT250 FM060500 25008KT P6SM SCT250 FM060800 27010G16KT P6SM SCT080 FM061000 28011KT P6SM SCT070 FM061600 29012G18KT P6SM FEW250